Time;durP1;ratioP1;P1;durP2;ratioP2;P2;SDS_P1;SDS_P2;PMS_P1;PMS_P2;Temp;Humidity;BMP_temperature;BMP_pressure;BME280_temperature;BME280_humidity;BME280_pressure;Samples;Min_cycle;Max_cycle;Signal;HPM_P1;HPM_P2
2022/03/13 00:00:24;;;;;;;18.13;13.97;;;8.70;92.20;;;;;;5033306;28;20052;-74
2022/03/13 00:02:50;;;;;;;18.98;14.63;;;8.70;92.30;;;;;;5032430;28;20304;-73
2022/03/13 00:05:16;;;;;;;17.58;13.25;;;8.70;92.30;;;;;;5015665;28;20132;-73
2022/03/13 00:07:43;;;;;;;19.40;12.95;;;8.70;92.40;;;;;;5032341;28;20192;-73
2022/03/13 00:10:10;;;;;;;17.30;13.27;;;8.70;92.40;;;;;;5034965;28;20405;-73
2022/03/13 00:12:36;;;;;;;21.85;15.68;;;8.70;92.60;;;;;;5053308;28;20279;-73
2022/03/13 00:15:05;;;;;;;18.77;13.55;;;8.70;92.60;;;;;;5019396;28;20055;-73
2022/03/13 00:17:31;;;;;;;17.10;14.00;;;8.70;92.80;;;;;;5053443;28;20063;-73
2022/03/13 00:20:00;;;;;;;20.92;14.40;;;8.70;93.00;;;;;;5053270;28;20045;-73
2022/03/13 00:22:27;;;;;;;19.67;15.43;;;8.70;93.10;;;;;;5018938;28;20075;-73
2022/03/13 00:24:54;;;;;;;17.48;13.55;;;8.60;93.10;;;;;;5035497;28;20048;-73
2022/03/13 00:27:20;;;;;;;18.17;13.88;;;8.60;93.30;;;;;;5035287;28;20084;-73
2022/03/13 00:29:46;;;;;;;19.10;13.57;;;8.60;93.40;;;;;;5019166;28;20114;-73
2022/03/13 00:32:12;;;;;;;19.60;14.93;;;8.60;93.60;;;;;;5034915;28;20037;-73
2022/03/13 00:34:38;;;;;;;17.57;14.00;;;8.60;93.60;;;;;;5035517;28;20044;-73
2022/03/13 00:37:04;;;;;;;18.43;14.13;;;8.50;93.80;;;;;;5035446;28;20306;-73
2022/03/13 00:39:30;;;;;;;17.57;14.30;;;8.50;93.70;;;;;;5034584;28;20283;-73
2022/03/13 00:41:56;;;;;;;18.55;14.15;;;8.50;93.90;;;;;;5035207;28;20079;-73
2022/03/13 00:44:22;;;;;;;20.87;14.53;;;8.50;94.10;;;;;;5018494;28;20088;-73
2022/03/13 00:46:48;;;;;;;17.48;13.50;;;8.50;94.30;;;;;;5052828;28;20049;-73
2022/03/13 00:49:14;;;;;;;17.83;14.00;;;8.50;94.50;;;;;;5034875;28;20049;-73
2022/03/13 00:51:39;;;;;;;19.83;14.63;;;8.50;94.40;;;;;;5052769;28;20048;-73
2022/03/13 00:54:05;;;;;;;18.27;13.70;;;8.50;94.60;;;;;;5035229;28;20045;-73
2022/03/13 00:56:31;;;;;;;18.20;14.23;;;8.50;94.60;;;;;;5052489;28;20095;-73
2022/03/13 00:58:58;;;;;;;17.33;13.85;;;8.50;94.60;;;;;;5035138;28;20082;-72
2022/03/13 01:01:23;;;;;;;18.70;14.52;;;8.50;94.60;;;;;;5052411;28;20072;-73
2022/03/13 01:03:53;;;;;;;17.07;13.83;;;8.50;94.80;;;;;;5034753;28;20171;-71
2022/03/13 01:06:20;;;;;;;28.58;14.05;;;8.50;94.80;;;;;;5018160;28;20048;-71
2022/03/13 01:08:47;;;;;;;19.33;14.80;;;8.50;94.70;;;;;;5035098;28;20521;-72
2022/03/13 01:11:18;;;;;;;20.15;14.93;;;8.50;94.80;;;;;;5034087;28;20096;-73
2022/03/13 01:13:45;;;;;;;21.08;14.85;;;8.60;94.80;;;;;;5034849;28;20114;-72
2022/03/13 01:16:23;;;;;;;17.63;13.68;;;8.60;94.70;;;;;;5034794;28;20401;-72
2022/03/13 01:18:58;;;;;;;19.77;14.88;;;8.60;94.60;;;;;;5034829;28;20041;-73
2022/03/13 01:21:25;;;;;;;18.42;14.50;;;8.70;94.40;;;;;;5034513;28;20053;-73
2022/03/13 01:24:00;;;;;;;19.75;14.18;;;8.70;94.40;;;;;;5034604;28;20420;-73
2022/03/13 01:26:25;;;;;;;17.35;14.05;;;8.80;94.30;;;;;;5034632;28;20089;-73
2022/03/13 01:28:57;;;;;;;21.67;14.80;;;8.80;94.30;;;;;;5035533;28;20084;-73
2022/03/13 01:31:32;;;;;;;17.17;14.18;;;8.80;94.30;;;;;;5038617;28;20123;-73
2022/03/13 01:33:59;;;;;;;17.40;14.23;;;8.80;94.30;;;;;;5056640;28;20049;-73
2022/03/13 01:36:25;;;;;;;17.77;14.35;;;8.80;94.30;;;;;;5055969;28;20045;-73
2022/03/13 01:39:00;;;;;;;17.07;12.97;;;8.80;94.50;;;;;;5055909;28;20507;-72
2022/03/13 01:41:28;;;;;;;17.15;14.13;;;8.90;94.40;;;;;;5038741;28;20735;-73
2022/03/13 01:43:57;;;;;;;18.13;14.32;;;8.80;94.60;;;;;;5056018;28;20147;-73
2022/03/13 01:46:23;;;;;;;17.92;14.60;;;8.90;94.60;;;;;;5038409;28;20151;-72
2022/03/13 01:49:02;;;;;;;19.88;13.65;;;8.90;94.40;;;;;;5022187;28;20049;-72
2022/03/13 01:51:28;;;;;;;16.58;13.30;;;8.90;94.30;;;;;;5038099;28;20384;-72
2022/03/13 01:54:01;;;;;;;21.88;14.18;;;8.80;94.50;;;;;;5056021;28;20049;-72
2022/03/13 01:56:30;;;;;;;17.80;13.95;;;8.90;94.50;;;;;;5055631;28;20122;-72
2022/03/13 01:58:56;;;;;;;18.05;14.75;;;8.80;94.60;;;;;;5038135;28;20056;-72
2022/03/13 02:01:24;;;;;;;17.80;13.93;;;8.80;94.70;;;;;;5021410;28;20056;-72
2022/03/13 02:03:50;;;;;;;17.55;14.52;;;8.80;94.80;;;;;;5037835;28;20084;-72
2022/03/13 02:06:17;;;;;;;17.40;13.65;;;8.80;94.80;;;;;;5021525;28;20389;-75
2022/03/13 02:08:47;;;;;;;18.17;14.15;;;8.80;94.70;;;;;;5038222;28;20122;-72
2022/03/13 02:11:21;;;;;;;18.50;14.07;;;8.80;95.00;;;;;;5055716;28;20060;-72
2022/03/13 02:13:50;;;;;;;16.73;13.18;;;8.80;95.00;;;;;;5038023;28;20556;-72
2022/03/13 02:16:18;;;;;;;19.05;14.35;;;8.80;95.00;;;;;;5055539;28;20143;-72
2022/03/13 02:18:55;;;;;;;19.08;14.30;;;8.80;95.10;;;;;;5055717;28;20084;-73
2022/03/13 02:21:25;;;;;;;19.00;14.18;;;8.80;95.00;;;;;;5055160;28;20048;-73
2022/03/13 02:23:51;;;;;;;22.80;14.90;;;8.70;95.20;;;;;;5037579;28;20048;-73
2022/03/13 02:26:20;;;;;;;19.27;13.97;;;8.80;95.20;;;;;;5055415;28;20064;-72
2022/03/13 02:28:52;;;;;;;17.92;14.10;;;8.80;95.10;;;;;;5055250;28;20132;-73
2022/03/13 02:31:32;;;;;;;22.13;14.53;;;8.70;95.20;;;;;;5037446;28;20492;-72
2022/03/13 02:33:58;;;;;;;18.08;13.68;;;8.70;95.20;;;;;;5037677;28;20291;-72
2022/03/13 02:36:34;;;;;;;18.58;14.48;;;8.70;95.20;;;;;;5054779;28;20140;-72
2022/03/13 02:39:01;;;;;;;19.33;14.23;;;8.70;95.40;;;;;;5055135;28;20066;-72
2022/03/13 02:41:27;;;;;;;17.63;14.20;;;8.70;95.50;;;;;;5053559;28;20130;-72
2022/03/13 02:43:57;;;;;;;19.93;14.80;;;8.70;95.60;;;;;;5054584;28;20084;-72
2022/03/13 02:46:24;;;;;;;18.38;13.63;;;8.70;95.50;;;;;;5020669;28;20292;-72
2022/03/13 02:48:51;;;;;;;18.17;14.02;;;8.70;95.50;;;;;;5054966;28;20049;-73
2022/03/13 02:51:18;;;;;;;19.13;14.18;;;8.80;95.50;;;;;;5037174;28;20056;-72
2022/03/13 02:53:44;;;;;;;18.90;13.77;;;8.70;95.40;;;;;;5054412;28;20063;-72
2022/03/13 02:56:10;;;;;;;20.02;14.40;;;8.80;95.40;;;;;;5054741;28;20056;-72
2022/03/13 02:58:37;;;;;;;18.17;14.30;;;8.80;95.30;;;;;;5054411;28;20048;-72
2022/03/13 03:01:02;;;;;;;18.65;14.77;;;8.80;95.20;;;;;;5054662;28;20045;-72
2022/03/13 03:03:28;;;;;;;19.00;14.70;;;8.80;95.10;;;;;;5020029;28;20476;-72
2022/03/13 03:05:54;;;;;;;20.33;13.07;;;8.80;94.90;;;;;;5054639;28;20055;-72
2022/03/13 03:08:21;;;;;;;20.70;14.30;;;8.80;94.90;;;;;;5036945;28;20084;-72
2022/03/13 03:10:48;;;;;;;20.58;13.48;;;8.80;94.80;;;;;;5036291;28;20396;-72
2022/03/13 03:13:15;;;;;;;17.80;13.77;;;8.80;94.70;;;;;;5054449;28;20102;-72
2022/03/13 03:15:42;;;;;;;16.88;13.57;;;8.80;94.80;;;;;;5054119;28;20041;-72
2022/03/13 03:18:09;;;;;;;16.70;13.60;;;8.80;94.90;;;;;;5054358;28;20076;-72
2022/03/13 03:20:35;;;;;;;17.80;13.35;;;8.80;94.80;;;;;;5053977;28;20045;-72
2022/03/13 03:23:02;;;;;;;19.80;14.38;;;8.80;94.70;;;;;;5036461;28;20400;-72
2022/03/13 03:25:28;;;;;;;19.73;13.70;;;8.80;94.80;;;;;;5036211;28;20126;-73
2022/03/13 03:27:57;;;;;;;17.00;13.43;;;8.90;94.60;;;;;;5054383;28;20060;-72
2022/03/13 03:30:24;;;;;;;19.10;13.48;;;8.90;94.70;;;;;;5036328;28;20052;-72
2022/03/13 03:32:51;;;;;;;17.88;13.75;;;8.90;94.50;;;;;;5036455;28;20045;-72
2022/03/13 03:35:19;;;;;;;17.70;12.77;;;8.90;94.50;;;;;;5036185;28;20048;-72
2022/03/13 03:37:46;;;;;;;17.23;12.82;;;8.90;94.60;;;;;;5035959;28;20839;-73
2022/03/13 03:40:11;;;;;;;16.25;12.65;;;8.90;94.70;;;;;;5036514;28;20439;-72
2022/03/13 03:42:37;;;;;;;18.23;12.43;;;8.90;94.70;;;;;;5035844;28;20041;-73
2022/03/13 03:45:04;;;;;;;19.63;13.45;;;8.90;94.70;;;;;;5020117;28;20159;-72
2022/03/13 03:47:30;;;;;;;17.40;13.05;;;8.90;94.80;;;;;;5035734;28;20057;-73
2022/03/13 03:49:56;;;;;;;17.73;13.10;;;8.90;94.80;;;;;;5036444;28;20396;-72
2022/03/13 03:52:22;;;;;;;16.83;12.23;;;8.90;94.80;;;;;;5035795;28;20392;-72
2022/03/13 03:54:48;;;;;;;16.00;12.73;;;8.90;94.90;;;;;;5035800;28;20549;-72
2022/03/13 03:57:13;;;;;;;15.60;11.73;;;9.00;94.80;;;;;;5053590;28;20366;-72
2022/03/13 03:59:39;;;;;;;16.87;12.97;;;8.90;94.80;;;;;;5053234;28;20091;-72
2022/03/13 04:02:05;;;;;;;16.03;12.20;;;8.90;94.90;;;;;;5053746;28;20045;-73
2022/03/13 04:04:30;;;;;;;17.37;13.57;;;8.90;94.90;;;;;;5035107;28;20053;-73
2022/03/13 04:06:56;;;;;;;17.50;13.43;;;8.80;95.00;;;;;;5019417;28;20131;-72
2022/03/13 04:09:22;;;;;;;18.77;14.07;;;8.80;95.00;;;;;;5019331;28;20047;-72
2022/03/13 04:11:48;;;;;;;15.20;11.93;;;8.80;95.10;;;;;;5018632;28;20099;-72
2022/03/13 04:14:17;;;;;;;19.83;13.40;;;8.80;95.20;;;;;;5035716;28;20115;-73
2022/03/13 04:16:43;;;;;;;17.53;13.97;;;8.70;95.10;;;;;;5018686;28;20052;-72
2022/03/13 04:19:11;;;;;;;17.53;13.30;;;8.70;95.20;;;;;;5018745;28;20279;-73
2022/03/13 04:21:41;;;;;;;17.15;13.18;;;8.70;95.30;;;;;;5052966;28;20045;-73
2022/03/13 04:24:11;;;;;;;17.92;12.90;;;8.70;95.40;;;;;;5035557;28;20460;-73
2022/03/13 04:26:39;;;;;;;17.98;13.23;;;8.60;95.50;;;;;;5035400;28;20056;-73
2022/03/13 04:29:09;;;;;;;16.67;13.00;;;8.60;95.60;;;;;;5035210;28;20056;-73
2022/03/13 04:31:37;;;;;;;18.35;13.00;;;8.60;95.70;;;;;;5018880;28;20053;-73
2022/03/13 04:34:04;;;;;;;20.08;13.38;;;8.60;95.80;;;;;;5019047;28;20052;-72
2022/03/13 04:36:32;;;;;;;17.38;12.77;;;8.60;95.80;;;;;;5035085;28;20048;-72
2022/03/13 04:38:59;;;;;;;18.90;13.43;;;8.60;95.90;;;;;;5035668;28;20088;-72
2022/03/13 04:41:25;;;;;;;19.52;13.63;;;8.60;96.10;;;;;;5035270;28;20049;-72
2022/03/13 04:43:53;;;;;;;19.88;13.52;;;8.60;96.10;;;;;;5052477;28;20041;-72
2022/03/13 04:46:18;;;;;;;16.77;13.27;;;8.50;96.00;;;;;;5035283;28;20392;-72
2022/03/13 04:48:44;;;;;;;19.70;13.27;;;8.50;96.10;;;;;;5034728;28;20049;-72
2022/03/13 04:51:10;;;;;;;16.77;13.33;;;8.50;96.30;;;;;;5052785;28;20370;-72
2022/03/13 04:53:36;;;;;;;18.67;14.15;;;8.50;96.30;;;;;;5052419;28;20041;-72
2022/03/13 04:56:02;;;;;;;18.17;13.10;;;8.40;96.50;;;;;;5035142;28;20051;-72
2022/03/13 04:58:28;;;;;;;16.85;13.13;;;8.40;96.30;;;;;;5052806;28;20041;-72
2022/03/13 05:00:54;;;;;;;19.10;14.43;;;8.40;96.30;;;;;;5034776;28;20126;-72
2022/03/13 05:03:20;;;;;;;16.50;12.83;;;8.50;96.40;;;;;;5018821;28;20045;-72
2022/03/13 05:05:46;;;;;;;19.20;14.75;;;8.50;96.70;;;;;;5056530;28;20282;-72
2022/03/13 05:08:15;;;;;;;17.57;14.00;;;8.40;96.30;;;;;;5039240;28;20489;-72
2022/03/13 05:10:46;;;;;;;21.17;14.00;;;8.50;96.40;;;;;;5056326;28;20127;-73
2022/03/13 05:13:15;;;;;;;17.65;13.75;;;8.40;96.30;;;;;;5056968;28;20049;-71
2022/03/13 05:15:45;;;;;;;17.55;14.32;;;8.50;96.30;;;;;;5056321;28;20531;-73
2022/03/13 05:18:12;;;;;;;18.48;14.95;;;8.50;96.10;;;;;;5038857;28;20041;-73
2022/03/13 05:20:39;;;;;;;18.20;14.10;;;8.40;95.90;;;;;;5038782;28;20060;-73
2022/03/13 05:23:07;;;;;;;20.15;14.68;;;8.40;95.90;;;;;;5022167;28;20056;-73
2022/03/13 05:25:38;;;;;;;17.50;14.50;;;8.40;95.80;;;;;;5022587;28;20094;-73
2022/03/13 05:28:05;;;;;;;19.05;14.63;;;8.40;95.80;;;;;;5056665;28;20142;-73
2022/03/13 05:30:31;;;;;;;19.73;14.15;;;8.40;95.80;;;;;;5056398;28;20053;-73
2022/03/13 05:32:58;;;;;;;17.65;14.60;;;8.40;95.90;;;;;;5056115;28;20041;-72
2022/03/13 05:35:24;;;;;;;18.00;13.65;;;8.40;95.70;;;;;;5038512;28;20078;-72
2022/03/13 05:37:51;;;;;;;23.13;15.07;;;8.40;95.80;;;;;;5055932;28;20052;-73
2022/03/13 05:40:19;;;;;;;16.77;13.23;;;8.40;95.70;;;;;;5038387;28;20060;-73
2022/03/13 05:42:50;;;;;;;18.23;14.48;;;8.40;95.60;;;;;;5038087;28;20045;-73
2022/03/13 05:45:17;;;;;;;20.33;14.88;;;8.40;95.50;;;;;;5038742;28;20531;-72
2022/03/13 05:48:07;;;;;;;20.33;14.43;;;8.40;95.50;;;;;;5055753;28;20045;-73
2022/03/13 05:50:33;;;;;;;19.75;14.38;;;8.40;95.00;;;;;;5038562;28;20166;-72
2022/03/13 05:52:59;;;;;;;18.10;14.57;;;8.40;95.20;;;;;;5037995;28;20088;-72
2022/03/13 05:55:26;;;;;;;17.13;13.40;;;8.40;94.80;;;;;;5021911;28;20076;-72
2022/03/13 05:57:56;;;;;;;20.27;14.65;;;8.40;94.90;;;;;;5021580;28;20178;-72
2022/03/13 06:00:23;;;;;;;18.70;14.10;;;8.40;94.60;;;;;;5038646;28;20392;-72
2022/03/13 06:02:49;;;;;;;17.50;13.55;;;8.40;94.50;;;;;;5037844;28;20041;-72
2022/03/13 06:05:17;;;;;;;18.55;14.07;;;8.40;94.40;;;;;;5038446;28;20075;-72
2022/03/13 06:07:44;;;;;;;17.33;13.40;;;8.40;94.30;;;;;;5037997;28;20067;-72
2022/03/13 06:10:10;;;;;;;17.75;14.20;;;8.40;94.10;;;;;;5038008;28;20056;-72
2022/03/13 06:12:36;;;;;;;19.10;13.80;;;8.40;94.10;;;;;;5038002;28;20202;-72
2022/03/13 06:15:04;;;;;;;18.25;13.80;;;8.40;94.20;;;;;;5020714;28;20543;-72
2022/03/13 06:17:30;;;;;;;22.02;18.55;;;8.40;94.30;;;;;;5038092;28;20095;-72
2022/03/13 06:19:56;;;;;;;20.58;17.50;;;8.30;94.20;;;;;;5021198;28;20052;-73
2022/03/13 06:22:23;;;;;;;20.80;15.40;;;8.30;94.30;;;;;;5055614;28;20397;-72
2022/03/13 06:24:49;;;;;;;20.27;17.95;;;8.30;94.50;;;;;;5020936;28;20492;-73
2022/03/13 06:27:16;;;;;;;22.93;17.03;;;8.30;94.50;;;;;;5055382;28;20055;-72
2022/03/13 06:29:42;;;;;;;25.05;22.42;;;8.30;94.50;;;;;;5037135;28;20493;-76
2022/03/13 06:32:08;;;;;;;19.07;16.80;;;8.20;94.60;;;;;;5037646;28;20056;-72
2022/03/13 06:34:34;;;;;;;19.50;16.60;;;8.20;95.00;;;;;;5037583;28;20053;-72
2022/03/13 06:36:59;;;;;;;18.33;15.37;;;8.20;94.70;;;;;;5037096;28;20275;-72
2022/03/13 06:39:25;;;;;;;19.13;15.90;;;8.20;94.80;;;;;;5055063;28;20049;-72
2022/03/13 06:41:51;;;;;;;20.47;15.80;;;8.20;94.70;;;;;;5037118;28;20044;-73
2022/03/13 06:44:20;;;;;;;20.73;16.33;;;8.20;94.80;;;;;;5055033;28;20095;-73
2022/03/13 06:46:47;;;;;;;20.90;15.05;;;8.10;94.70;;;;;;5054797;28;20044;-73
2022/03/13 06:49:13;;;;;;;21.58;15.23;;;8.20;94.70;;;;;;5054885;28;20055;-73
2022/03/13 06:51:39;;;;;;;17.60;14.70;;;8.20;94.90;;;;;;5020553;28;20052;-72
2022/03/13 06:54:06;;;;;;;20.47;15.00;;;8.20;95.20;;;;;;5020214;28;20049;-73
2022/03/13 06:56:33;;;;;;;19.95;14.73;;;8.10;95.30;;;;;;5036925;28;20060;-72
2022/03/13 06:59:03;;;;;;;20.40;15.38;;;8.20;95.40;;;;;;5036872;28;20098;-72
2022/03/13 07:01:33;;;;;;;18.20;14.43;;;8.10;95.30;;;;;;5021113;28;20037;-72
2022/03/13 07:03:59;;;;;;;20.27;16.33;;;8.10;95.10;;;;;;5054329;28;20052;-73
2022/03/13 07:06:24;;;;;;;20.70;14.20;;;8.10;95.10;;;;;;5054550;28;20045;-72
2022/03/13 07:08:50;;;;;;;20.27;16.00;;;8.10;95.20;;;;;;5054313;28;20048;-73
2022/03/13 07:11:16;;;;;;;19.60;15.13;;;8.10;94.90;;;;;;5054362;28;20049;-72
2022/03/13 07:13:45;;;;;;;17.77;15.07;;;8.10;95.20;;;;;;5037027;28;20056;-72
2022/03/13 07:16:13;;;;;;;19.70;15.93;;;8.10;95.20;;;;;;5036508;28;20045;-72
2022/03/13 07:18:39;;;;;;;18.88;15.30;;;8.00;95.30;;;;;;5054365;28;20053;-72
2022/03/13 07:21:05;;;;;;;23.15;18.67;;;8.00;95.60;;;;;;5036556;28;20052;-72
2022/03/13 07:23:31;;;;;;;20.77;15.25;;;8.00;95.60;;;;;;5019961;28;20058;-72
2022/03/13 07:25:57;;;;;;;18.60;15.67;;;8.00;95.70;;;;;;5036056;28;20131;-72
2022/03/13 07:28:23;;;;;;;19.87;15.43;;;8.00;95.80;;;;;;5053752;28;20052;-72
2022/03/13 07:30:48;;;;;;;18.47;14.57;;;8.00;95.80;;;;;;5053871;28;20079;-75
2022/03/13 07:33:14;;;;;;;19.53;14.57;;;8.00;95.80;;;;;;5054385;28;20084;-72
2022/03/13 07:35:40;;;;;;;20.20;14.80;;;8.00;95.40;;;;;;5054051;28;20396;-73
2022/03/13 07:38:06;;;;;;;18.33;15.07;;;8.00;95.10;;;;;;5035871;28;20299;-73
2022/03/13 07:40:32;;;;;;;21.90;14.37;;;8.00;94.60;;;;;;5053995;28;20328;-72
2022/03/13 07:42:58;;;;;;;18.85;14.63;;;8.10;94.60;;;;;;5053554;28;20052;-72
2022/03/13 07:45:25;;;;;;;18.10;14.15;;;8.10;94.10;;;;;;5054063;28;20048;-72
2022/03/13 07:47:54;;;;;;;17.05;14.25;;;8.10;93.90;;;;;;5035987;28;20146;-73
2022/03/13 07:50:21;;;;;;;18.67;14.38;;;8.20;93.50;;;;;;5053838;28;20048;-72
2022/03/13 07:52:47;;;;;;;20.42;14.50;;;8.20;93.30;;;;;;5019719;28;20061;-73
2022/03/13 07:55:14;;;;;;;18.00;14.25;;;8.20;93.30;;;;;;5019399;28;20400;-73
2022/03/13 07:57:40;;;;;;;18.75;13.88;;;8.30;93.10;;;;;;5036138;28;20072;-72
2022/03/13 08:00:10;;;;;;;21.13;15.57;;;8.30;92.60;;;;;;5035416;28;20515;-72
2022/03/13 08:02:36;;;;;;;56.63;36.33;;;8.30;92.60;;;;;;5035838;28;20522;-73
2022/03/13 08:05:02;;;;;;;54.13;34.87;;;8.30;91.90;;;;;;5053184;28;20045;-73
2022/03/13 08:07:28;;;;;;;33.78;30.25;;;8.40;91.90;;;;;;5053425;28;20041;-72
2022/03/13 08:09:54;;;;;;;20.07;17.07;;;8.50;91.30;;;;;;5035400;28;20055;-74
2022/03/13 08:12:20;;;;;;;18.92;14.10;;;8.50;91.10;;;;;;5035459;28;20055;-72
2022/03/13 08:14:46;;;;;;;20.45;14.10;;;8.50;91.10;;;;;;5053287;28;20136;-73
2022/03/13 08:17:12;;;;;;;17.90;13.30;;;8.50;90.10;;;;;;5019016;28;20131;-73
2022/03/13 08:19:38;;;;;;;18.40;13.20;;;8.60;89.20;;;;;;5037685;28;20041;-73
2022/03/13 08:22:04;;;;;;;14.77;10.93;;;8.60;89.30;;;;;;5034783;28;20049;-73
2022/03/13 08:24:30;;;;;;;18.27;12.57;;;8.60;87.30;;;;;;5053134;28;20049;-73
2022/03/13 08:26:55;;;;;;;15.57;12.00;;;8.70;88.60;;;;;;5052893;28;20055;-74
2022/03/13 08:29:21;;;;;;;13.83;11.43;;;8.70;86.70;;;;;;5035892;28;20495;-72
2022/03/13 08:31:47;;;;;;;18.37;12.80;;;8.70;85.60;;;;;;5053096;28;20045;-72
2022/03/13 08:34:12;;;;;;;15.30;12.47;;;8.80;85.70;;;;;;5053005;28;20068;-73
2022/03/13 08:36:39;;;;;;;16.93;12.70;;;8.90;85.80;;;;;;5019239;28;20081;-73
2022/03/13 08:39:05;;;;;;;16.38;12.88;;;9.00;84.60;;;;;;5034942;28;20060;-74
2022/03/13 08:41:32;;;;;;;16.10;11.80;;;9.10;84.70;;;;;;5052888;28;20053;-72
2022/03/13 08:43:58;;;;;;;16.07;12.50;;;9.20;84.20;;;;;;5034661;28;20310;-73
2022/03/13 08:46:23;;;;;;;16.43;12.37;;;9.30;83.30;;;;;;5052854;28;20279;-73
2022/03/13 08:48:49;;;;;;;20.00;12.47;;;9.30;81.60;;;;;;5034924;28;20081;-73
2022/03/13 08:51:17;;;;;;;16.40;12.57;;;9.50;81.10;;;;;;5052126;28;20044;-73
2022/03/13 08:53:44;;;;;;;17.20;12.60;;;9.60;80.10;;;;;;5035194;28;20492;-73
2022/03/13 08:56:13;;;;;;;16.63;11.63;;;9.70;80.30;;;;;;5018589;28;20079;-73
2022/03/13 08:58:40;;;;;;;14.10;11.50;;;9.80;79.10;;;;;;5052371;28;20763;-73
2022/03/13 09:01:06;;;;;;;17.20;12.80;;;10.00;78.80;;;;;;5034836;28;20814;-73
2022/03/13 09:03:32;;;;;;;15.30;11.60;;;10.00;76.50;;;;;;5034830;28;20438;-72
2022/03/13 09:05:57;;;;;;;13.97;11.53;;;10.10;76.70;;;;;;5052515;28;20053;-78
2022/03/13 09:08:23;;;;;;;14.70;12.13;;;10.20;75.70;;;;;;5052576;28;20666;-73
2022/03/13 09:10:50;;;;;;;16.10;11.90;;;10.20;75.40;;;;;;5052558;28;20056;-73
2022/03/13 09:13:16;;;;;;;18.60;12.80;;;10.20;75.20;;;;;;5034617;28;20041;-73
2022/03/13 09:15:41;;;;;;;16.40;11.67;;;10.30;73.70;;;;;;5052752;28;20310;-72
2022/03/13 09:18:07;;;;;;;15.23;11.83;;;10.40;73.80;;;;;;5052225;28;20283;-72
2022/03/13 09:20:33;;;;;;;17.57;11.97;;;10.50;73.00;;;;;;5018433;28;20049;-72
2022/03/13 09:22:59;;;;;;;16.43;11.43;;;10.60;72.80;;;;;;5052479;28;20048;-75
2022/03/13 09:25:24;;;;;;;20.93;12.13;;;10.80;71.80;;;;;;5034850;28;20045;-72
2022/03/13 09:27:52;;;;;;;15.33;11.50;;;10.90;68.80;;;;;;5053670;28;20048;-71
2022/03/13 09:30:17;;;;;;;17.43;12.20;;;11.00;70.70;;;;;;5034690;28;20049;-71
2022/03/13 09:32:44;;;;;;;14.70;10.53;;;11.20;85.70;;;;;;5034689;28;20370;-72
2022/03/13 09:35:11;;;;;;;15.67;11.63;;;11.30;69.00;;;;;;5052089;28;20045;-73
2022/03/13 09:37:39;;;;;;;15.83;12.70;;;11.30;67.60;;;;;;5052414;28;20358;-73
2022/03/13 09:40:06;;;;;;;15.67;12.33;;;11.40;66.50;;;;;;5052056;28;20283;-71
2022/03/13 09:42:31;;;;;;;14.70;11.63;;;11.60;67.50;;;;;;5052318;28;20299;-71
2022/03/13 09:44:59;;;;;;;16.40;11.87;;;11.70;67.50;;;;;;5052585;28;20321;-72
2022/03/13 09:47:29;;;;;;;16.80;12.87;;;11.70;65.40;;;;;;5034299;28;20053;-70
2022/03/13 09:49:55;;;;;;;18.87;13.20;;;11.80;63.60;;;;;;5053464;28;20645;-74
2022/03/13 09:52:21;;;;;;;14.57;11.80;;;11.80;64.90;;;;;;5055882;28;20354;-71
2022/03/13 09:54:46;;;;;;;17.97;12.60;;;11.80;65.50;;;;;;5056045;28;20464;-84
2022/03/13 09:57:12;;;;;;;15.53;11.23;;;11.90;65.20;;;;;;5038108;28;20087;-77
2022/03/13 09:59:38;;;;;;;17.87;13.97;;;11.90;64.50;;;;;;5038111;28;20057;-74
2022/03/13 10:02:08;;;;;;;16.90;12.07;;;11.90;64.30;;;;;;5055406;28;20135;-80
2022/03/13 10:04:34;;;;;;;18.10;13.63;;;12.00;63.80;;;;;;5037981;28;20055;-78
2022/03/13 10:07:07;;;;;;;18.10;14.20;;;12.10;63.70;;;;;;5055843;28;20276;-75
2022/03/13 10:09:35;;;;;;;13.90;10.57;;;12.20;64.10;;;;;;5038089;28;20326;-79
2022/03/13 10:12:13;;;;;;;15.77;11.83;;;12.20;63.10;;;;;;5055746;28;20295;-74
2022/03/13 10:14:59;;;;;;;16.97;11.77;;;12.30;62.00;;;;;;5055960;28;20362;-76
2022/03/13 10:17:30;;;;;;;15.37;12.10;;;12.40;62.90;;;;;;5037490;28;20275;-75
2022/03/13 10:20:14;;;;;;;15.90;13.03;;;12.40;61.60;;;;;;5056071;28;20341;-73
2022/03/13 10:22:41;;;;;;;15.60;11.47;;;12.50;61.70;;;;;;5055818;28;20349;-72
2022/03/13 10:25:07;;;;;;;19.23;12.73;;;12.60;61.10;;;;;;5055058;28;20279;-73
2022/03/13 10:27:35;;;;;;;17.37;12.20;;;12.60;60.80;;;;;;5055606;28;20283;-70
2022/03/13 10:30:02;;;;;;;15.63;11.93;;;12.60;60.50;;;;;;5037480;28;20422;-74
2022/03/13 10:32:29;;;;;;;16.20;12.77;;;12.70;58.90;;;;;;5054984;28;20315;-71
2022/03/13 10:34:56;;;;;;;16.40;11.87;;;12.80;59.90;;;;;;5055555;28;20286;-76
2022/03/13 10:37:38;;;;;;;18.07;12.20;;;12.80;59.50;;;;;;5054897;28;20289;-72
2022/03/13 10:40:22;;;;;;;20.03;12.40;;;12.90;59.10;;;;;;5055088;28;20739;-73
2022/03/13 10:42:50;;;;;;;14.20;11.53;;;12.90;58.90;;;;;;5036946;28;20685;-69
2022/03/13 10:45:41;;;;;;;16.23;12.23;;;12.90;59.40;;;;;;5037137;28;20326;-71
2022/03/13 10:48:24;;;;;;;13.97;11.43;;;13.00;60.50;;;;;;5055137;28;20275;-72
2022/03/13 10:50:51;;;;;;;16.73;13.03;;;13.10;59.90;;;;;;5054934;28;20280;-72
2022/03/13 10:53:21;;;;;;;15.37;12.00;;;13.10;59.10;;;;;;5054475;28;20271;-80
2022/03/13 10:56:03;;;;;;;14.50;11.40;;;13.10;58.90;;;;;;5020987;28;20405;-75
2022/03/13 10:58:35;;;;;;;16.40;12.70;;;13.20;59.00;;;;;;5020378;28;20296;-73
2022/03/13 11:01:12;;;;;;;17.83;12.10;;;13.30;60.10;;;;;;5036739;28;20425;-73
2022/03/13 11:03:48;;;;;;;20.40;13.43;;;13.30;59.00;;;;;;5054705;28;20306;-73
2022/03/13 11:06:14;;;;;;;18.70;13.13;;;13.40;63.00;;;;;;5054354;28;20276;-73
2022/03/13 11:08:41;;;;;;;15.83;12.40;;;13.50;58.90;;;;;;5037049;28;20288;-73
2022/03/13 11:11:15;;;;;;;18.47;12.37;;;13.60;59.10;;;;;;5054232;28;20057;-73
2022/03/13 11:13:42;;;;;;;18.37;13.10;;;13.60;57.90;;;;;;5054949;28;20338;-78
2022/03/13 11:16:11;;;;;;;18.80;12.90;;;13.60;58.30;;;;;;5020477;28;20322;-79
2022/03/13 11:18:38;;;;;;;17.60;13.07;;;13.60;57.80;;;;;;5054580;28;20350;-83
2022/03/13 11:21:08;;;;;;;15.17;12.60;;;13.60;58.40;;;;;;5036773;28;20295;-80
2022/03/13 11:23:37;;;;;;;15.70;12.07;;;13.70;58.20;;;;;;5054019;28;20358;-78
2022/03/13 11:26:07;;;;;;;18.53;12.67;;;13.70;58.20;;;;;;5036638;28;20291;-77
2022/03/13 11:28:35;;;;;;;15.60;11.90;;;13.90;78.50;;;;;;5035969;28;20357;-78
2022/03/13 11:31:01;;;;;;;17.43;12.73;;;13.90;60.80;;;;;;5036720;28;20843;-78
2022/03/13 11:33:34;;;;;;;17.93;14.13;;;13.90;60.40;;;;;;5036243;28;20370;-77
2022/03/13 11:36:29;;;;;;;17.30;12.73;;;13.90;60.80;;;;;;5036577;28;20075;-77
2022/03/13 11:39:03;;;;;;;17.17;12.88;;;14.00;66.50;;;;;;5036549;28;20350;-77
2022/03/13 11:41:38;;;;;;;14.80;12.37;;;14.10;63.10;;;;;;5035823;28;20056;-78
2022/03/13 11:44:25;;;;;;;17.75;13.10;;;14.10;71.60;;;;;;5036056;28;20342;-76
2022/03/13 11:46:53;;;;;;;15.80;12.30;;;14.10;58.10;;;;;;5019603;28;20063;-79
2022/03/13 11:49:37;;;;;;;14.97;12.90;;;14.20;57.30;;;;;;5035807;28;20337;-76
2022/03/13 11:52:12;;;;;;;16.17;12.47;;;14.20;56.70;;;;;;5036254;28;20802;-77
2022/03/13 11:54:47;;;;;;;15.57;12.50;;;14.20;57.20;;;;;;5053485;28;20673;-76
2022/03/13 11:57:13;;;;;;;;;;;14.20;57.40;;;;;;5036281;28;20487;-78
2022/03/13 11:59:39;;;;;;;16.67;13.37;;;14.20;57.80;;;;;;5019127;28;19965;-78
2022/03/13 12:02:10;;;;;;;18.10;12.57;;;14.20;57.80;;;;;;4986676;28;20379;-74
2022/03/13 12:04:36;;;;;;;17.87;11.43;;;14.20;57.90;;;;;;5053215;28;20049;-80
2022/03/13 12:07:06;;;;;;;16.30;12.27;;;14.10;58.60;;;;;;5036036;28;20283;-88
2022/03/13 12:09:44;;;;;;;16.10;13.03;;;14.20;58.10;;;;;;5019632;28;20068;-85
2022/03/13 12:12:17;;;;;;;15.60;11.63;;;14.20;57.90;;;;;;5018956;28;20299;-73
2022/03/13 12:14:57;;;;;;;17.40;11.80;;;14.30;58.40;;;;;;5053437;28;20284;-73
2022/03/13 12:17:25;;;;;;;14.77;10.97;;;;;;;;;;5036406;28;20280;-73
2022/03/13 12:20:00;;;;;;;14.73;11.47;;;14.50;57.70;;;;;;5035354;28;20775;-72
2022/03/13 12:22:27;;;;;;;;;;;14.50;58.20;;;;;;5053291;28;20767;-72
2022/03/13 12:25:00;;;;;;;15.10;12.13;;;14.50;57.50;;;;;;5035607;28;20015;-72
2022/03/13 12:27:26;;;;;;;15.13;11.70;;;14.50;58.20;;;;;;5035191;28;20758;-72
2022/03/13 12:29:57;;;;;;;17.43;12.23;;;14.50;58.30;;;;;;5053107;28;20287;-74
2022/03/13 12:32:31;;;;;;;15.23;11.80;;;14.50;58.40;;;;;;5053229;28;20283;-74
2022/03/13 12:34:58;;;;;;;16.50;11.40;;;14.50;58.30;;;;;;5035532;28;20326;-75
2022/03/13 12:37:26;;;;;;;14.57;10.00;;;14.60;58.50;;;;;;5035021;28;20295;-77
2022/03/13 12:39:55;;;;;;;14.10;10.03;;;14.60;58.00;;;;;;5035408;28;20283;-81